Home > Products > Valid Products > TAF

000
FTUS45 KPUB 261125
TAFALS
TAF
KALS 261125Z 2612/2712 17008KT P6SM SCT100 BKN200
     FM261600 14007KT P6SM VCTS SCT060CB BKN120
     FM261900 08013KT P6SM -SHRA VCTS SCT040CB OVC090
     FM270000 07015KT 5SM -SHRA BR SCT030 OVC060
     FM270700 10007KT P6SM SCT030 BKN050=



000
FTUS45 KPUB 261125
TAFPUB
TAF
KPUB 261125Z 2612/2712 08008KT P6SM BKN012
     FM261400 09008KT 5SM BR VCSH BKN008
     FM261900 09012KT 4SM -SHRA BR VCTS BKN018CB OVC040
     FM270000 05015KT 4SM -SHRA BR BKN012 OVC025=



000
FTUS45 KPUB 261125
TAFCOS
TAF
KCOS 261125Z 2612/2712 12010KT P6SM VCSH OVC010
     FM261300 12008KT 3SM -SHRA BR OVC008
     FM261800 08012KT 3SM -SHRA BR VCTS BKN012CB OVC040
     FM270000 03014KT 2SM -SHRA BR BKN010 OVC012=



000
FTUS45 KPUB 261125
TAFPUB
TAF
KPUB 261125Z 2612/2712 08008KT P6SM BKN012
     FM261400 09008KT 5SM BR VCSH BKN008
     FM261900 09012KT 4SM -SHRA BR VCTS BKN018CB OVC040
     FM270000 05015KT 4SM -SHRA BR BKN012 OVC025=



000
FTUS45 KPUB 261108 AAC
TAFCOS
TAF AMD
KCOS 261108Z 2611/2706 12010KT P6SM VCSH OVC010
     FM261300 12008KT 2SM -SHRA BR OVC008
     FM261800 08012KT 3SM -SHRA BR VCTS BKN018CB OVC040
     FM270000 03014KT 2SM -SHRA BR BKN010 OVC025=



000
FTUS45 KPUB 261108 AAC
TAFCOS
TAF AMD
KCOS 261108Z 2611/2706 12010KT P6SM VCSH OVC010
     FM261300 12008KT 2SM -SHRA BR OVC008
     FM261800 08012KT 3SM -SHRA BR VCTS BKN018CB OVC040
     FM270000 03014KT 2SM -SHRA BR BKN010 OVC025=



000
FTUS45 KPUB 261106 AAC
TAFPUB
TAF AMD
KPUB 261106Z 2611/2706 08008KT P6SM BKN010
     FM261400 09008KT 5SM BR VCSH BKN008
     FM261900 09012KT 4SM -SHRA BR VCTS BKN018CB OVC040
     FM270000 05015KT 4SM -SHRA BR BKN012 OVC025=



000
FTUS45 KPUB 261106 AAC
TAFPUB
TAF AMD
KPUB 261106Z 2611/2706 08008KT P6SM BKN010
     FM261400 09008KT 5SM BR VCSH BKN008
     FM261900 09012KT 4SM -SHRA BR VCTS BKN018CB OVC040
     FM270000 05015KT 4SM -SHRA BR BKN012 OVC025=



000
FTUS45 KPUB 260651 AAB
TAFCOS
TAF AMD
KCOS 260651Z 2607/2706 11010KT P6SM SCT060 BKN120
     FM260800 11007KT P6SM VCSH BKN040
     FM260900 12010KT 3SM -SHRA BR OVC018
     FM261200 12008KT 2SM -SHRA BR BKN006 OVC015
     FM261800 08012KT 3SM -SHRA BR VCTS BKN018CB OVC040
     FM270000 03014KT 2SM -SHRA BR BKN010 OVC025=



000
FTUS45 KPUB 260651 AAB
TAFCOS
TAF AMD
KCOS 260651Z 2607/2706 11010KT P6SM SCT060 BKN120
     FM260800 11007KT P6SM VCSH BKN040
     FM260900 12010KT 3SM -SHRA BR OVC018
     FM261200 12008KT 2SM -SHRA BR BKN006 OVC015
     FM261800 08012KT 3SM -SHRA BR VCTS BKN018CB OVC040
     FM270000 03014KT 2SM -SHRA BR BKN010 OVC025=



000
FTUS45 KPUB 260651 AAB
TAFCOS
TAF AMD
KCOS 260651Z 2607/2706 11010KT P6SM SCT060 BKN120
     FM260800 11007KT P6SM VCSH BKN040
     FM260900 12010KT 3SM -SHRA BR OVC018
     FM261200 12008KT 2SM -SHRA BR BKN006 OVC015
     FM261800 08012KT 3SM -SHRA BR VCTS BKN018CB OVC040
     FM270000 03014KT 2SM -SHRA BR BKN010 OVC025=



000
FTUS45 KPUB 260651 AAB
TAFCOS
TAF AMD
KCOS 260651Z 2607/2706 11010KT P6SM SCT060 BKN120
     FM260800 11007KT P6SM VCSH BKN040
     FM260900 12010KT 3SM -SHRA BR OVC018
     FM261200 12008KT 2SM -SHRA BR BKN006 OVC015
     FM261800 08012KT 3SM -SHRA BR VCTS BKN018CB OVC040
     FM270000 03014KT 2SM -SHRA BR BKN010 OVC025=



000
FTUS45 KPUB 260629 AAA
TAFCOS
TAF AMD
KCOS 260629Z 2606/2706 11010KT P6SM SCT060 BKN120
     FM260800 11007KT P6SM BKN040
     FM260900 12010KT 3SM BR OVC018
     FM261200 12008KT 2SM -DZ BR BKN006 OVC015
     FM261800 08012KT 3SM -SHRA BR VCTS BKN018CB OVC040
     FM270000 03014KT 2SM -SHRA BR BKN010 OVC025=



000
FTUS45 KPUB 260629 AAA
TAFCOS
TAF AMD
KCOS 260629Z 2606/2706 11010KT P6SM SCT060 BKN120
     FM260800 11007KT P6SM BKN040
     FM260900 12010KT 3SM BR OVC018
     FM261200 12008KT 2SM -DZ BR BKN006 OVC015
     FM261800 08012KT 3SM -SHRA BR VCTS BKN018CB OVC040
     FM270000 03014KT 2SM -SHRA BR BKN010 OVC025=



000
FTUS45 KPUB 260629 AAA
TAFCOS
TAF AMD
KCOS 260629Z 2606/2706 11010KT P6SM SCT060 BKN120
     FM260800 11007KT P6SM BKN040
     FM260900 12010KT 3SM BR OVC018
     FM261200 12008KT 2SM -DZ BR BKN006 OVC015
     FM261800 08012KT 3SM -SHRA BR VCTS BKN018CB OVC040
     FM270000 03014KT 2SM -SHRA BR BKN010 OVC025=



000
FTUS45 KPUB 260629 AAA
TAFCOS
TAF AMD
KCOS 260629Z 2606/2706 11010KT P6SM SCT060 BKN120
     FM260800 11007KT P6SM BKN040
     FM260900 12010KT 3SM BR OVC018
     FM261200 12008KT 2SM -DZ BR BKN006 OVC015
     FM261800 08012KT 3SM -SHRA BR VCTS BKN018CB OVC040
     FM270000 03014KT 2SM -SHRA BR BKN010 OVC025=



000
FTUS45 KPUB 260627 AAA
TAFPUB
TAF AMD
KPUB 260627Z 2606/2706 08010KT P6SM SCT060 BKN120
     FM261000 09010KT P6SM OVC015
     FM261100 08008KT 3SM BR VCSH BKN006 OVC015
     FM261900 09012KT 4SM -SHRA BR VCTS BKN018CB OVC040
     FM270000 05015KT 4SM -SHRA BR BKN012 OVC025=



000
FTUS45 KPUB 260627 AAA
TAFPUB
TAF AMD
KPUB 260627Z 2606/2706 08010KT P6SM SCT060 BKN120
     FM261000 09010KT P6SM OVC015
     FM261100 08008KT 3SM BR VCSH BKN006 OVC015
     FM261900 09012KT 4SM -SHRA BR VCTS BKN018CB OVC040
     FM270000 05015KT 4SM -SHRA BR BKN012 OVC025=



000
FTUS45 KPUB 260627 AAA
TAFPUB
TAF AMD
KPUB 260627Z 2606/2706 08010KT P6SM SCT060 BKN120
     FM261000 09010KT P6SM OVC015
     FM261100 08008KT 3SM BR VCSH BKN006 OVC015
     FM261900 09012KT 4SM -SHRA BR VCTS BKN018CB OVC040
     FM270000 05015KT 4SM -SHRA BR BKN012 OVC025=



000
FTUS45 KPUB 260627 AAA
TAFPUB
TAF AMD
KPUB 260627Z 2606/2706 08010KT P6SM SCT060 BKN120
     FM261000 09010KT P6SM OVC015
     FM261100 08008KT 3SM BR VCSH BKN006 OVC015
     FM261900 09012KT 4SM -SHRA BR VCTS BKN018CB OVC040
     FM270000 05015KT 4SM -SHRA BR BKN012 OVC025=



000
FTUS45 KPUB 260520
TAFCOS
TAF
KCOS 260520Z 2606/2706 11010KT P6SM SCT060 BKN120
     FM260800 09007KT P6SM VCFG SCT010 BKN100
     FM261400 06008KT 2SM -DZ BR BKN006 OVC015
     FM261800 08012KT 3SM -SHRA BR VCTS BKN018CB OVC040
     FM270000 03014KT 2SM -SHRA BR BKN010 OVC025=



000
FTUS45 KPUB 260520
TAFCOS
TAF
KCOS 260520Z 2606/2706 11010KT P6SM SCT060 BKN120
     FM260800 09007KT P6SM VCFG SCT010 BKN100
     FM261400 06008KT 2SM -DZ BR BKN006 OVC015
     FM261800 08012KT 3SM -SHRA BR VCTS BKN018CB OVC040
     FM270000 03014KT 2SM -SHRA BR BKN010 OVC025=



000
FTUS45 KPUB 260520
TAFALS
TAF
KALS 260520Z 2606/2706 17008KT P6SM SCT100 BKN200
     FM261600 14007KT P6SM VCTS SCT060CB BKN120
     FM261900 08013KT P6SM -SHRA VCTS SCT040CB OVC090
     FM270000 07015KT 5SM BR VCSH SCT030 OVC060=



000
FTUS45 KPUB 260520
TAFPUB
TAF
KPUB 260520Z 2606/2706 08010KT P6SM SCT060 BKN120
     FM261100 04008KT P6SM VCFG SCT010 BKN100
     FM261500 08008KT 3SM BR VCSH BKN006 OVC015
     FM261900 09012KT 4SM -SHRA BR VCTS BKN018CB OVC040
     FM270000 05015KT 4SM -SHRA BR BKN012 OVC025=



000
FTUS45 KPUB 260520
TAFALS
TAF
KALS 260520Z 2606/2706 17008KT P6SM SCT100 BKN200
     FM261600 14007KT P6SM VCTS SCT060CB BKN120
     FM261900 08013KT P6SM -SHRA VCTS SCT040CB OVC090
     FM270000 07015KT 5SM BR VCSH SCT030 OVC060=



000
FTUS45 KPUB 260520
TAFALS
TAF
KALS 260520Z 2606/2706 17008KT P6SM SCT100 BKN200
     FM261600 14007KT P6SM VCTS SCT060CB BKN120
     FM261900 08013KT P6SM -SHRA VCTS SCT040CB OVC090
     FM270000 07015KT 5SM BR VCSH SCT030 OVC060=



000
FTUS45 KPUB 260520
TAFCOS
TAF
KCOS 260520Z 2606/2706 11010KT P6SM SCT060 BKN120
     FM260800 09007KT P6SM VCFG SCT010 BKN100
     FM261400 06008KT 2SM -DZ BR BKN006 OVC015
     FM261800 08012KT 3SM -SHRA BR VCTS BKN018CB OVC040
     FM270000 03014KT 2SM -SHRA BR BKN010 OVC025=



000
FTUS45 KPUB 260520
TAFPUB
TAF
KPUB 260520Z 2606/2706 08010KT P6SM SCT060 BKN120
     FM261100 04008KT P6SM VCFG SCT010 BKN100
     FM261500 08008KT 3SM BR VCSH BKN006 OVC015
     FM261900 09012KT 4SM -SHRA BR VCTS BKN018CB OVC040
     FM270000 05015KT 4SM -SHRA BR BKN012 OVC025=



000
FTUS45 KPUB 260520
TAFALS
TAF
KALS 260520Z 2606/2706 17008KT P6SM SCT100 BKN200
     FM261600 14007KT P6SM VCTS SCT060CB BKN120
     FM261900 08013KT P6SM -SHRA VCTS SCT040CB OVC090
     FM270000 07015KT 5SM BR VCSH SCT030 OVC060=



000
FTUS45 KPUB 260520
TAFPUB
TAF
KPUB 260520Z 2606/2706 08010KT P6SM SCT060 BKN120
     FM261100 04008KT P6SM VCFG SCT010 BKN100
     FM261500 08008KT 3SM BR VCSH BKN006 OVC015
     FM261900 09012KT 4SM -SHRA BR VCTS BKN018CB OVC040
     FM270000 05015KT 4SM -SHRA BR BKN012 OVC025=



000
FTUS45 KPUB 260520
TAFCOS
TAF
KCOS 260520Z 2606/2706 11010KT P6SM SCT060 BKN120
     FM260800 09007KT P6SM VCFG SCT010 BKN100
     FM261400 06008KT 2SM -DZ BR BKN006 OVC015
     FM261800 08012KT 3SM -SHRA BR VCTS BKN018CB OVC040
     FM270000 03014KT 2SM -SHRA BR BKN010 OVC025=



000
FTUS45 KPUB 260520
TAFPUB
TAF
KPUB 260520Z 2606/2706 08010KT P6SM SCT060 BKN120
     FM261100 04008KT P6SM VCFG SCT010 BKN100
     FM261500 08008KT 3SM BR VCSH BKN006 OVC015
     FM261900 09012KT 4SM -SHRA BR VCTS BKN018CB OVC040
     FM270000 05015KT 4SM -SHRA BR BKN012 OVC025=



000
FTUS45 KPUB 252321
TAFPUB
TAF
KPUB 252321Z 2600/2624 12013KT P6SM VCSH SCT080 BKN150
     FM260300 33012KT P6SM SCT060 BKN120
     FM261100 04008KT P6SM VCFG SCT010 BKN100
     FM261500 08008KT 3SM BR VCSH BKN006 OVC015
     FM261900 09012KT 4SM -SHRA BR BKN012 OVC025=



000
FTUS45 KPUB 252321
TAFCOS
TAF
KCOS 252321Z 2600/2624 14011KT P6SM VCTS SCT070CB BKN120
      TEMPO 2600/2602 VRB15G30KT BKN050CB
     FM260200 01012KT P6SM SCT060 BKN120
     FM260800 03008KT P6SM VCFG SCT010 BKN100
     FM261400 06008KT 2SM -DZ BR BKN006 OVC015
     FM261800 08012KT 4SM -SHRA BR BKN012 OVC025=



000
FTUS45 KPUB 252321
TAFALS
TAF
KALS 252321Z 2600/2624 19015G25KT P6SM VCTS SCT060CB BKN120
     FM260200 20010KT P6SM SCT080 BKN140
     FM260800 16008KT P6SM SCT100 BKN200
     FM261600 14007KT P6SM VCTS SCT060CB BKN120=



000
FTUS45 KPUB 252321
TAFALS
TAF
KALS 252321Z 2600/2624 19015G25KT P6SM VCTS SCT060CB BKN120
     FM260200 20010KT P6SM SCT080 BKN140
     FM260800 16008KT P6SM SCT100 BKN200
     FM261600 14007KT P6SM VCTS SCT060CB BKN120=



000
FTUS45 KPUB 252321
TAFPUB
TAF
KPUB 252321Z 2600/2624 12013KT P6SM VCSH SCT080 BKN150
     FM260300 33012KT P6SM SCT060 BKN120
     FM261100 04008KT P6SM VCFG SCT010 BKN100
     FM261500 08008KT 3SM BR VCSH BKN006 OVC015
     FM261900 09012KT 4SM -SHRA BR BKN012 OVC025=



000
FTUS45 KPUB 252321
TAFCOS
TAF
KCOS 252321Z 2600/2624 14011KT P6SM VCTS SCT070CB BKN120
      TEMPO 2600/2602 VRB15G30KT BKN050CB
     FM260200 01012KT P6SM SCT060 BKN120
     FM260800 03008KT P6SM VCFG SCT010 BKN100
     FM261400 06008KT 2SM -DZ BR BKN006 OVC015
     FM261800 08012KT 4SM -SHRA BR BKN012 OVC025=



000
FTUS45 KPUB 252205 AAB
TAFALS
TAF AMD
KALS 252205Z 2522/2618 20015G25KT P6SM VCTS SCT060CB BKN120
     FM260200 20010KT P6SM SCT080 BKN140
     FM260800 16008KT P6SM SCT100 BKN200
     FM261600 18012KT P6SM VCTS SCT060CB BKN120=



000
FTUS45 KPUB 252205 AAB
TAFALS
TAF AMD
KALS 252205Z 2522/2618 20015G25KT P6SM VCTS SCT060CB BKN120
     FM260200 20010KT P6SM SCT080 BKN140
     FM260800 16008KT P6SM SCT100 BKN200
     FM261600 18012KT P6SM VCTS SCT060CB BKN120=



000
FTUS45 KPUB 252205 AAB
TAFALS
TAF AMD
KALS 252205Z 2522/2618 20015G25KT P6SM VCTS SCT060CB BKN120
     FM260200 20010KT P6SM SCT080 BKN140
     FM260800 16008KT P6SM SCT100 BKN200
     FM261600 18012KT P6SM VCTS SCT060CB BKN120=



000
FTUS45 KPUB 252205 AAB
TAFALS
TAF AMD
KALS 252205Z 2522/2618 20015G25KT P6SM VCTS SCT060CB BKN120
     FM260200 20010KT P6SM SCT080 BKN140
     FM260800 16008KT P6SM SCT100 BKN200
     FM261600 18012KT P6SM VCTS SCT060CB BKN120=



000
FTUS45 KPUB 252103 AAB
TAFCOS
TAF AMD
KCOS 252103Z 2521/2618 14012KT P6SM VCTS SCT070CB BKN140
      TEMPO 2521/2524 VRB15G30KT BKN060CB
     FM260200 35012KT P6SM SCT060 BKN120
     FM261000 03008KT P6SM VCFG SCT010 BKN100
     FM261400 06008KT 3SM -DZ BR BKN006 OVC015=



000
FTUS45 KPUB 252103 AAB
TAFCOS
TAF AMD
KCOS 252103Z 2521/2618 14012KT P6SM VCTS SCT070CB BKN140
      TEMPO 2521/2524 VRB15G30KT BKN060CB
     FM260200 35012KT P6SM SCT060 BKN120
     FM261000 03008KT P6SM VCFG SCT010 BKN100
     FM261400 06008KT 3SM -DZ BR BKN006 OVC015=



000
FTUS45 KPUB 252000 AAA
TAFALS
TAF AMD
KALS 252000Z 2520/2618 20010KT P6SM SCT100 BKN200
     FM252200 24015G25KT P6SM VCTS SCT060CB BKN120
     FM260200 20010KT P6SM SCT080 BKN140
     FM260800 16008KT P6SM SCT100 BKN200
     FM261600 18012KT P6SM VCTS SCT060CB BKN120=



000
FTUS45 KPUB 252000 AAA
TAFALS
TAF AMD
KALS 252000Z 2520/2618 20010KT P6SM SCT100 BKN200
     FM252200 24015G25KT P6SM VCTS SCT060CB BKN120
     FM260200 20010KT P6SM SCT080 BKN140
     FM260800 16008KT P6SM SCT100 BKN200
     FM261600 18012KT P6SM VCTS SCT060CB BKN120=



000
FTUS45 KPUB 251959 AAA
TAFCOS
TAF AMD
KCOS 251959Z 2520/2618 12012KT P6SM SCT100 BKN200
     FM252100 14012KT P6SM VCTS SCT070CB BKN140
      TEMPO 2522/2601 VRB15G30KT BKN060CB
     FM260200 35012KT P6SM SCT060 BKN120
     FM261000 03008KT P6SM VCFG SCT010 BKN100
     FM261400 06008KT 3SM -DZ BR BKN006 OVC015=



000
FTUS45 KPUB 251959 AAA
TAFCOS
TAF AMD
KCOS 251959Z 2520/2618 12012KT P6SM SCT100 BKN200
     FM252100 14012KT P6SM VCTS SCT070CB BKN140
      TEMPO 2522/2601 VRB15G30KT BKN060CB
     FM260200 35012KT P6SM SCT060 BKN120
     FM261000 03008KT P6SM VCFG SCT010 BKN100
     FM261400 06008KT 3SM -DZ BR BKN006 OVC015=



000
FTUS45 KPUB 251959 AAA
TAFCOS
TAF AMD
KCOS 251959Z 2520/2618 12012KT P6SM SCT100 BKN200
     FM252100 14012KT P6SM VCTS SCT070CB BKN140
      TEMPO 2522/2601 VRB15G30KT BKN060CB
     FM260200 35012KT P6SM SCT060 BKN120
     FM261000 03008KT P6SM VCFG SCT010 BKN100
     FM261400 06008KT 3SM -DZ BR BKN006 OVC015=



000
FTUS45 KPUB 251959 AAA
TAFCOS
TAF AMD
KCOS 251959Z 2520/2618 12012KT P6SM SCT100 BKN200
     FM252100 14012KT P6SM VCTS SCT070CB BKN140
      TEMPO 2522/2601 VRB15G30KT BKN060CB
     FM260200 35012KT P6SM SCT060 BKN120
     FM261000 03008KT P6SM VCFG SCT010 BKN100
     FM261400 06008KT 3SM -DZ BR BKN006 OVC015=



000
FTUS45 KPUB 251959 AAB
TAFPUB
TAF AMD
KPUB 251959Z 2520/2618 15008KT P6SM SCT120 BKN200
     FM252200 16012KT P6SM VCSH SCT080 BKN150
     FM260200 33012KT P6SM SCT060 BKN120
     FM261100 04008KT P6SM VCFG SCT010 BKN100
     FM261500 08008KT 3SM BR BKN006 OVC015=



000
FTUS45 KPUB 251959 AAB
TAFPUB
TAF AMD
KPUB 251959Z 2520/2618 15008KT P6SM SCT120 BKN200
     FM252200 16012KT P6SM VCSH SCT080 BKN150
     FM260200 33012KT P6SM SCT060 BKN120
     FM261100 04008KT P6SM VCFG SCT010 BKN100
     FM261500 08008KT 3SM BR BKN006 OVC015=



000
FTUS45 KPUB 251726
TAFCOS
TAF
KCOS 251726Z 2518/2618 15014KT P6SM FEW100 SCT200
     FM252000 18012KT P6SM VCTS SCT070CB BKN140
      TEMPO 2522/2601 VRB15G30KT BKN060CB
     FM260200 35012KT P6SM SCT060 BKN120
     FM261000 03008KT P6SM VCFG SCT010 BKN100
     FM261400 06008KT 3SM -DZ BR BKN006 OVC015=



000
FTUS45 KPUB 251726
TAFALS
TAF
KALS 251726Z 2518/2618 22014KT P6SM SCT100 BKN200
     FM252000 24015G25KT P6SM VCTS SCT060CB BKN120
     FM260200 20010KT P6SM SCT080 BKN140
     FM260800 16008KT P6SM SCT100 BKN200
     FM261600 18012KT P6SM VCTS SCT060CB BKN120=



000
FTUS45 KPUB 251726
TAFALS
TAF
KALS 251726Z 2518/2618 22014KT P6SM SCT100 BKN200
     FM252000 24015G25KT P6SM VCTS SCT060CB BKN120
     FM260200 20010KT P6SM SCT080 BKN140
     FM260800 16008KT P6SM SCT100 BKN200
     FM261600 18012KT P6SM VCTS SCT060CB BKN120=



000
FTUS45 KPUB 251726
TAFCOS
TAF
KCOS 251726Z 2518/2618 15014KT P6SM FEW100 SCT200
     FM252000 18012KT P6SM VCTS SCT070CB BKN140
      TEMPO 2522/2601 VRB15G30KT BKN060CB
     FM260200 35012KT P6SM SCT060 BKN120
     FM261000 03008KT P6SM VCFG SCT010 BKN100
     FM261400 06008KT 3SM -DZ BR BKN006 OVC015=



000
FTUS45 KPUB 251726
TAFPUB
TAF
KPUB 251726Z 2518/2618 25014KT P6SM FEW120 SCT200
     FM252200 16012KT P6SM VCSH SCT080 BKN150
     FM260200 33012KT P6SM SCT060 BKN120
     FM261100 04008KT P6SM VCFG SCT010 BKN100
     FM261500 08008KT 3SM BR BKN006 OVC015=



000
FTUS45 KPUB 251726
TAFCOS
TAF
KCOS 251726Z 2518/2618 15014KT P6SM FEW100 SCT200
     FM252000 18012KT P6SM VCTS SCT070CB BKN140
      TEMPO 2522/2601 VRB15G30KT BKN060CB
     FM260200 35012KT P6SM SCT060 BKN120
     FM261000 03008KT P6SM VCFG SCT010 BKN100
     FM261400 06008KT 3SM -DZ BR BKN006 OVC015=



000
FTUS45 KPUB 251726
TAFPUB
TAF
KPUB 251726Z 2518/2618 25014KT P6SM FEW120 SCT200
     FM252200 16012KT P6SM VCSH SCT080 BKN150
     FM260200 33012KT P6SM SCT060 BKN120
     FM261100 04008KT P6SM VCFG SCT010 BKN100
     FM261500 08008KT 3SM BR BKN006 OVC015=



000
FTUS45 KPUB 251726
TAFALS
TAF
KALS 251726Z 2518/2618 22014KT P6SM SCT100 BKN200
     FM252000 24015G25KT P6SM VCTS SCT060CB BKN120
     FM260200 20010KT P6SM SCT080 BKN140
     FM260800 16008KT P6SM SCT100 BKN200
     FM261600 18012KT P6SM VCTS SCT060CB BKN120=



000
FTUS45 KPUB 251726
TAFALS
TAF
KALS 251726Z 2518/2618 22014KT P6SM SCT100 BKN200
     FM252000 24015G25KT P6SM VCTS SCT060CB BKN120
     FM260200 20010KT P6SM SCT080 BKN140
     FM260800 16008KT P6SM SCT100 BKN200
     FM261600 18012KT P6SM VCTS SCT060CB BKN120=



000
FTUS45 KPUB 251726
TAFCOS
TAF
KCOS 251726Z 2518/2618 15014KT P6SM FEW100 SCT200
     FM252000 18012KT P6SM VCTS SCT070CB BKN140
      TEMPO 2522/2601 VRB15G30KT BKN060CB
     FM260200 35012KT P6SM SCT060 BKN120
     FM261000 03008KT P6SM VCFG SCT010 BKN100
     FM261400 06008KT 3SM -DZ BR BKN006 OVC015=



000
FTUS45 KPUB 251726
TAFPUB
TAF
KPUB 251726Z 2518/2618 25014KT P6SM FEW120 SCT200
     FM252200 16012KT P6SM VCSH SCT080 BKN150
     FM260200 33012KT P6SM SCT060 BKN120
     FM261100 04008KT P6SM VCFG SCT010 BKN100
     FM261500 08008KT 3SM BR BKN006 OVC015=



000
FTUS45 KPUB 251726
TAFPUB
TAF
KPUB 251726Z 2518/2618 25014KT P6SM FEW120 SCT200
     FM252200 16012KT P6SM VCSH SCT080 BKN150
     FM260200 33012KT P6SM SCT060 BKN120
     FM261100 04008KT P6SM VCFG SCT010 BKN100
     FM261500 08008KT 3SM BR BKN006 OVC015=



000
FTUS45 KPUB 251524 AAC
TAFPUB
TAF AMD
KPUB 251524Z 2515/2612 28014G24KT P6SM SCT250
     FM251900 24014KT P6SM FEW100 SCT200
     FM252300 16012KT P6SM SCT080 BKN150
     FM260200 36014KT P6SM SCT060 BKN120
     FM260600 35008KT P6SM SCT040 BKN060
     FM261000 VRB04KT 5SM BR SCT005 BKN050=



000
FTUS45 KPUB 251524 AAC
TAFPUB
TAF AMD
KPUB 251524Z 2515/2612 28014G24KT P6SM SCT250
     FM251900 24014KT P6SM FEW100 SCT200
     FM252300 16012KT P6SM SCT080 BKN150
     FM260200 36014KT P6SM SCT060 BKN120
     FM260600 35008KT P6SM SCT040 BKN060
     FM261000 VRB04KT 5SM BR SCT005 BKN050=



000
FTUS45 KPUB 251203 AAB
TAFPUB
TAF AMD
KPUB 251203Z 2512/2612 VRB05KT P6SM SKC
     FM251400 28008KT P6SM SCT250
     FM252000 24010KT P6SM SCT100 BKN250
     FM252200 16012KT P6SM SCT080 BKN150
     FM260200 36014KT P6SM SCT060 BKN120
     FM260600 35008KT P6SM SCT040 BKN060
     FM261000 VRB04KT 5SM BR SCT005 BKN050=



000
FTUS45 KPUB 251203 AAB
TAFPUB
TAF AMD
KPUB 251203Z 2512/2612 VRB05KT P6SM SKC
     FM251400 28008KT P6SM SCT250
     FM252000 24010KT P6SM SCT100 BKN250
     FM252200 16012KT P6SM SCT080 BKN150
     FM260200 36014KT P6SM SCT060 BKN120
     FM260600 35008KT P6SM SCT040 BKN060
     FM261000 VRB04KT 5SM BR SCT005 BKN050=



000
FTUS45 KPUB 251203 AAB
TAFPUB
TAF AMD
KPUB 251203Z 2512/2612 VRB05KT P6SM SKC
     FM251400 28008KT P6SM SCT250
     FM252000 24010KT P6SM SCT100 BKN250
     FM252200 16012KT P6SM SCT080 BKN150
     FM260200 36014KT P6SM SCT060 BKN120
     FM260600 35008KT P6SM SCT040 BKN060
     FM261000 VRB04KT 5SM BR SCT005 BKN050=



000
FTUS45 KPUB 251154 AAA
TAFCOS
TAF AMD
KCOS 251154Z 2512/2612 33006KT P6SM SCT200
     FM251700 16008KT P6SM SCT120 SCT250
     FM251900 18012KT P6SM VCTS SCT080CB BKN150
     FM252200 20013KT P6SM VCTS SCT060CB BKN120
     FM260100 35010KT P6SM VCSH SCT050 BKN100
     FM260900 34004KT 5SM BR SCT005 OVC100=



000
FTUS45 KPUB 251154 AAA
TAFCOS
TAF AMD
KCOS 251154Z 2512/2612 33006KT P6SM SCT200
     FM251700 16008KT P6SM SCT120 SCT250
     FM251900 18012KT P6SM VCTS SCT080CB BKN150
     FM252200 20013KT P6SM VCTS SCT060CB BKN120
     FM260100 35010KT P6SM VCSH SCT050 BKN100
     FM260900 34004KT 5SM BR SCT005 OVC100=



000
FTUS45 KPUB 251154 AAA
TAFCOS
TAF AMD
KCOS 251154Z 2512/2612 33006KT P6SM SCT200
     FM251700 16008KT P6SM SCT120 SCT250
     FM251900 18012KT P6SM VCTS SCT080CB BKN150
     FM252200 20013KT P6SM VCTS SCT060CB BKN120
     FM260100 35010KT P6SM VCSH SCT050 BKN100
     FM260900 34004KT 5SM BR SCT005 OVC100=



000
FTUS45 KPUB 251146
TAFALS
TAF
KALS 251146Z 2512/2612 VRB06KT P6SM FEW250
     FM251500 20008KT P6SM SCT120 SCT250
     FM251800 22014KT P6SM VCTS SCT060CB BKN150
     FM252200 24015G25KT P6SM VCTS SCT050CB BKN120
     FM260200 20008KT P6SM VCSH SCT040 BKN090=



000
FTUS45 KPUB 251146
TAFALS
TAF
KALS 251146Z 2512/2612 VRB06KT P6SM FEW250
     FM251500 20008KT P6SM SCT120 SCT250
     FM251800 22014KT P6SM VCTS SCT060CB BKN150
     FM252200 24015G25KT P6SM VCTS SCT050CB BKN120
     FM260200 20008KT P6SM VCSH SCT040 BKN090=



000
FTUS45 KPUB 251146
TAFCOS
TAF
KCOS 251146Z 2512/2612 35006KT P6SM SCT200
     FM251700 16008KT P6SM SCT120 SCT250
     FM251900 18012KT P6SM VCTS SCT080CB BKN150
     FM252200 20013KT P6SM VCTS SCT060CB BKN120
     FM260200 35010KT P6SM VCSH SCT050 BKN100=



000
FTUS45 KPUB 251146
TAFPUB
TAF
KPUB 251146Z 2512/2612 34005KT P6SM FEW200
     FM251800 18009KT P6SM SCT120 SCT250
     FM252200 15013KT P6SM VCTS SCT080CB BKN150
     FM260200 35013KT P6SM VCSH SCT060 BKN100=



000
FTUS45 KPUB 251146
TAFCOS
TAF
KCOS 251146Z 2512/2612 35006KT P6SM SCT200
     FM251700 16008KT P6SM SCT120 SCT250
     FM251900 18012KT P6SM VCTS SCT080CB BKN150
     FM252200 20013KT P6SM VCTS SCT060CB BKN120
     FM260200 35010KT P6SM VCSH SCT050 BKN100=



000
FTUS45 KPUB 251146
TAFPUB
TAF
KPUB 251146Z 2512/2612 34005KT P6SM FEW200
     FM251800 18009KT P6SM SCT120 SCT250
     FM252200 15013KT P6SM VCTS SCT080CB BKN150
     FM260200 35013KT P6SM VCSH SCT060 BKN100=



000
FTUS45 KPUB 250530
TAFALS
TAF
KALS 250530Z 2506/2606 VRB06KT P6SM FEW250
     FM251500 20008KT P6SM SCT120 SCT250
     FM251800 22014KT P6SM VCTS SCT060CB BKN150
     FM252200 24015G25KT P6SM VCTS SCT050CB BKN120
     FM260200 20008KT P6SM VCSH SCT040 BKN090=



000
FTUS45 KPUB 250530
TAFPUB
TAF
KPUB 250530Z 2506/2606 34005KT P6SM FEW200
     FM251800 18009KT P6SM SCT120 SCT250
     FM252200 15013KT P6SM VCTS SCT080CB BKN150
     FM260200 35013KT P6SM VCSH SCT060 BKN100=



000
FTUS45 KPUB 250530
TAFCOS
TAF
KCOS 250530Z 2506/2606 35006KT P6SM SCT200
     FM251700 16008KT P6SM SCT120 SCT250
     FM251900 18012KT P6SM VCTS SCT080CB BKN150
     FM252200 20013KT P6SM VCTS SCT060CB BKN120
     FM260200 35010KT P6SM VCSH SCT050 BKN100=



000
FTUS45 KPUB 250530
TAFCOS
TAF
KCOS 250530Z 2506/2606 35006KT P6SM SCT200
     FM251700 16008KT P6SM SCT120 SCT250
     FM251900 18012KT P6SM VCTS SCT080CB BKN150
     FM252200 20013KT P6SM VCTS SCT060CB BKN120
     FM260200 35010KT P6SM VCSH SCT050 BKN100=



000
FTUS45 KPUB 250530
TAFPUB
TAF
KPUB 250530Z 2506/2606 34005KT P6SM FEW200
     FM251800 18009KT P6SM SCT120 SCT250
     FM252200 15013KT P6SM VCTS SCT080CB BKN150
     FM260200 35013KT P6SM VCSH SCT060 BKN100=



000
FTUS45 KPUB 250530
TAFALS
TAF
KALS 250530Z 2506/2606 VRB06KT P6SM FEW250
     FM251500 20008KT P6SM SCT120 SCT250
     FM251800 22014KT P6SM VCTS SCT060CB BKN150
     FM252200 24015G25KT P6SM VCTS SCT050CB BKN120
     FM260200 20008KT P6SM VCSH SCT040 BKN090=



000
FTUS45 KPUB 242328
TAFPUB
TAF
KPUB 242328Z 2500/2524 25010KT P6SM VCTS SCT060CB BKN100
      TEMPO 2500/2502 VRB12G22KT BKN060CB
     FM250200 30011KT P6SM BKN150
     FM250400 34005KT P6SM FEW150 SCT250
     FM251800 18009KT P6SM SCT120 SCT250
     FM252200 15013KT P6SM VCTS SCT080CB BKN150=



000
FTUS45 KPUB 242328
TAFCOS
TAF
KCOS 242328Z 2500/2524 28010KT P6SM VCTS SCT060CB BKN120
      TEMPO 2500/2502 VRB15G25KT BKN060CB
     FM250200 34008KT P6SM SCT150 SCT250
     FM250500 35006KT P6SM FEW150
     FM251700 16008KT P6SM SCT120 SCT250
     FM251900 18012KT P6SM VCTS SCT080CB BKN150=



000
FTUS45 KPUB 242328
TAFALS
TAF
KALS 242328Z 2500/2524 32006KT P6SM VCTS FEW050CB SCT100
      TEMPO 2500/2502 VRB15G25KT SCT040CB BKN060
     FM250200 27010KT P6SM SCT090 SCT130
     FM250400 VRB06KT P6SM SCT250
     FM251500 20008KT P6SM SCT120 SCT250
     FM251800 22014KT P6SM VCTS SCT060CB BKN150=



000
FTUS45 KPUB 242328
TAFALS
TAF
KALS 242328Z 2500/2524 32006KT P6SM VCTS FEW050CB SCT100
      TEMPO 2500/2502 VRB15G25KT SCT040CB BKN060
     FM250200 27010KT P6SM SCT090 SCT130
     FM250400 VRB06KT P6SM SCT250
     FM251500 20008KT P6SM SCT120 SCT250
     FM251800 22014KT P6SM VCTS SCT060CB BKN150=



000
FTUS45 KPUB 242328
TAFPUB
TAF
KPUB 242328Z 2500/2524 25010KT P6SM VCTS SCT060CB BKN100
      TEMPO 2500/2502 VRB12G22KT BKN060CB
     FM250200 30011KT P6SM BKN150
     FM250400 34005KT P6SM FEW150 SCT250
     FM251800 18009KT P6SM SCT120 SCT250
     FM252200 15013KT P6SM VCTS SCT080CB BKN150=



000
FTUS45 KPUB 242328
TAFCOS
TAF
KCOS 242328Z 2500/2524 28010KT P6SM VCTS SCT060CB BKN120
      TEMPO 2500/2502 VRB15G25KT BKN060CB
     FM250200 34008KT P6SM SCT150 SCT250
     FM250500 35006KT P6SM FEW150
     FM251700 16008KT P6SM SCT120 SCT250
     FM251900 18012KT P6SM VCTS SCT080CB BKN150=



000
FTUS45 KPUB 242328
TAFALS
TAF
KALS 242328Z 2500/2524 32006KT P6SM VCTS FEW050CB SCT100
      TEMPO 2500/2502 VRB15G25KT SCT040CB BKN060
     FM250200 27010KT P6SM SCT090 SCT130
     FM250400 VRB06KT P6SM SCT250
     FM251500 20008KT P6SM SCT120 SCT250
     FM251800 22014KT P6SM VCTS SCT060CB BKN150=



000
FTUS45 KPUB 242328
TAFALS
TAF
KALS 242328Z 2500/2524 32006KT P6SM VCTS FEW050CB SCT100
      TEMPO 2500/2502 VRB15G25KT SCT040CB BKN060
     FM250200 27010KT P6SM SCT090 SCT130
     FM250400 VRB06KT P6SM SCT250
     FM251500 20008KT P6SM SCT120 SCT250
     FM251800 22014KT P6SM VCTS SCT060CB BKN150=



000
FTUS45 KPUB 242328
TAFPUB
TAF
KPUB 242328Z 2500/2524 25010KT P6SM VCTS SCT060CB BKN100
      TEMPO 2500/2502 VRB12G22KT BKN060CB
     FM250200 30011KT P6SM BKN150
     FM250400 34005KT P6SM FEW150 SCT250
     FM251800 18009KT P6SM SCT120 SCT250
     FM252200 15013KT P6SM VCTS SCT080CB BKN150=



000
FTUS45 KPUB 242328
TAFPUB
TAF
KPUB 242328Z 2500/2524 25010KT P6SM VCTS SCT060CB BKN100
      TEMPO 2500/2502 VRB12G22KT BKN060CB
     FM250200 30011KT P6SM BKN150
     FM250400 34005KT P6SM FEW150 SCT250
     FM251800 18009KT P6SM SCT120 SCT250
     FM252200 15013KT P6SM VCTS SCT080CB BKN150=



000
FTUS45 KPUB 242328
TAFCOS
TAF
KCOS 242328Z 2500/2524 28010KT P6SM VCTS SCT060CB BKN120
      TEMPO 2500/2502 VRB15G25KT BKN060CB
     FM250200 34008KT P6SM SCT150 SCT250
     FM250500 35006KT P6SM FEW150
     FM251700 16008KT P6SM SCT120 SCT250
     FM251900 18012KT P6SM VCTS SCT080CB BKN150=



000
FTUS45 KPUB 242328
TAFCOS
TAF
KCOS 242328Z 2500/2524 28010KT P6SM VCTS SCT060CB BKN120
      TEMPO 2500/2502 VRB15G25KT BKN060CB
     FM250200 34008KT P6SM SCT150 SCT250
     FM250500 35006KT P6SM FEW150
     FM251700 16008KT P6SM SCT120 SCT250
     FM251900 18012KT P6SM VCTS SCT080CB BKN150=



000
FTUS45 KPUB 242144 AAA
TAFALS
TAF AMD
KALS 242144Z 2422/2518 30015G30KT P6SM VCTS SCT050CB BKN100
     FM250200 28010KT P6SM SCT090 SCT130
     FM250400 VRB05KT P6SM SCT250=



000
FTUS45 KPUB 242144 AAA
TAFALS
TAF AMD
KALS 242144Z 2422/2518 30015G30KT P6SM VCTS SCT050CB BKN100
     FM250200 28010KT P6SM SCT090 SCT130
     FM250400 VRB05KT P6SM SCT250=



000
FTUS45 KPUB 242143 AAC
TAFPUB
TAF AMD
KPUB 242143Z 2422/2518 VRB20G35KT P6SM VCTS SCT060CB BKN070 BKN090
     FM242300 30012G22KT P6SM VCTS SCT070CB BKN100
     FM250200 30011KT P6SM BKN150
     FM250400 34005KT P6SM SCT150 SCT250=



000
FTUS45 KPUB 242143 AAC
TAFPUB
TAF AMD
KPUB 242143Z 2422/2518 VRB20G35KT P6SM VCTS SCT060CB BKN070 BKN090
     FM242300 30012G22KT P6SM VCTS SCT070CB BKN100
     FM250200 30011KT P6SM BKN150
     FM250400 34005KT P6SM SCT150 SCT250=



000
FTUS45 KPUB 242143 AAC
TAFPUB
TAF AMD
KPUB 242143Z 2422/2518 VRB20G35KT P6SM VCTS SCT060CB BKN070 BKN090
     FM242300 30012G22KT P6SM VCTS SCT070CB BKN100
     FM250200 30011KT P6SM BKN150
     FM250400 34005KT P6SM SCT150 SCT250=



000
FTUS45 KPUB 242143 AAC
TAFPUB
TAF AMD
KPUB 242143Z 2422/2518 VRB20G35KT P6SM VCTS SCT060CB BKN070 BKN090
     FM242300 30012G22KT P6SM VCTS SCT070CB BKN100
     FM250200 30011KT P6SM BKN150
     FM250400 34005KT P6SM SCT150 SCT250=



000
FTUS45 KPUB 242142 AAB
TAFCOS
TAF AMD
KCOS 242142Z 2422/2518 36015G30KT P6SM VCTS SCT060CB BKN100
     FM242300 33012G22KT P6SM VCTS SCT060CB BKN110
     FM250200 34008KT P6SM SCT150 SCT250=



000
FTUS45 KPUB 242142 AAB
TAFCOS
TAF AMD
KCOS 242142Z 2422/2518 36015G30KT P6SM VCTS SCT060CB BKN100
     FM242300 33012G22KT P6SM VCTS SCT060CB BKN110
     FM250200 34008KT P6SM SCT150 SCT250=



000
FTUS45 KPUB 242042 AAA
TAFCOS
TAF AMD
KCOS 242042Z 2421/2518 36010G20KT P6SM VCSH FEW060 SCT110 BKN150
     FM242200 33012G22KT P6SM VCTS SCT060CB BKN110
     FM250300 34008KT P6SM SCT150 SCT250=



000
FTUS45 KPUB 242042 AAA
TAFCOS
TAF AMD
KCOS 242042Z 2421/2518 36010G20KT P6SM VCSH FEW060 SCT110 BKN150
     FM242200 33012G22KT P6SM VCTS SCT060CB BKN110
     FM250300 34008KT P6SM SCT150 SCT250=



000
FTUS45 KPUB 242041 AAA
TAFPUB
TAF AMD
KPUB 242041Z 2421/2518 VRB20G35KT P6SM VCTS SCT070CB BKN100
     FM242200 30012G22KT P6SM VCTS SCT070CB BKN100
     FM250200 30011KT P6SM BKN150
     FM250400 34005KT P6SM SCT150 SCT250=



000
FTUS45 KPUB 242041 AAA
TAFPUB
TAF AMD
KPUB 242041Z 2421/2518 VRB20G35KT P6SM VCTS SCT070CB BKN100
     FM242200 30012G22KT P6SM VCTS SCT070CB BKN100
     FM250200 30011KT P6SM BKN150
     FM250400 34005KT P6SM SCT150 SCT250=



000
FTUS45 KPUB 241746
TAFALS
TAF
KALS 241746Z 2418/2518 25010KT P6SM FEW050 SCT100 BKN150
     FM242000 29015G25KT P6SM VCTS SCT050CB BKN100
     FM250200 28010KT P6SM SCT090 SCT130
     FM250400 VRB05KT P6SM SCT250=



000
FTUS45 KPUB 241746
TAFCOS
TAF
KCOS 241746Z 2418/2518 33010KT P6SM VCSH FEW060 SCT110 BKN150
     FM242000 33012G22KT P6SM VCTS SCT060CB BKN110
     FM250300 34008KT P6SM SCT150 SCT250=



000
FTUS45 KPUB 241746
TAFPUB
TAF
KPUB 241746Z 2418/2518 VRB05KT P6SM FEW070 SCT120 SCT150
     FM242000 31010G20KT P6SM FEW070 SCT120 BKN150
     FM242100 33015G25KT P6SM VCTS SCT070CB BKN120
     FM250200 30011KT P6SM BKN150
     FM250400 34005KT P6SM SCT150 SCT250=



000
FTUS45 KPUB 241746
TAFCOS
TAF
KCOS 241746Z 2418/2518 33010KT P6SM VCSH FEW060 SCT110 BKN150
     FM242000 33012G22KT P6SM VCTS SCT060CB BKN110
     FM250300 34008KT P6SM SCT150 SCT250=



000
FTUS45 KPUB 241746
TAFALS
TAF
KALS 241746Z 2418/2518 25010KT P6SM FEW050 SCT100 BKN150
     FM242000 29015G25KT P6SM VCTS SCT050CB BKN100
     FM250200 28010KT P6SM SCT090 SCT130
     FM250400 VRB05KT P6SM SCT250=



000
FTUS45 KPUB 241746
TAFPUB
TAF
KPUB 241746Z 2418/2518 VRB05KT P6SM FEW070 SCT120 SCT150
     FM242000 31010G20KT P6SM FEW070 SCT120 BKN150
     FM242100 33015G25KT P6SM VCTS SCT070CB BKN120
     FM250200 30011KT P6SM BKN150
     FM250400 34005KT P6SM SCT150 SCT250=



000
FTUS45 KPUB 241120
TAFPUB
TAF
KPUB 241120Z 2412/2512 VRB06KT P6SM BKN120
     FM241700 33010KT P6SM SCT080 BKN120
     FM242100 33015KT P6SM VCSH SCT080 BKN120
     FM250200 30011KT P6SM BKN140
     FM250400 34005KT P6SM BKN120=



000
FTUS45 KPUB 241120
TAFALS
TAF
KALS 241120Z 2412/2512 VRB05KT P6SM BKN110
     FM241700 29008KT P6SM VCSH SCT090 BKN130
     FM242100 29015G24KT P6SM VCSH SCT090 BKN130
     FM250200 28010KT P6SM SCT090 SCT130
     FM250400 VRB04KT P6SM SCT250=



000
FTUS45 KPUB 241120
TAFPUB
TAF
KPUB 241120Z 2412/2512 VRB06KT P6SM BKN120
     FM241700 33010KT P6SM SCT080 BKN120
     FM242100 33015KT P6SM VCSH SCT080 BKN120
     FM250200 30011KT P6SM BKN140
     FM250400 34005KT P6SM BKN120=



000
FTUS45 KPUB 241120
TAFALS
TAF
KALS 241120Z 2412/2512 VRB05KT P6SM BKN110
     FM241700 29008KT P6SM VCSH SCT090 BKN130
     FM242100 29015G24KT P6SM VCSH SCT090 BKN130
     FM250200 28010KT P6SM SCT090 SCT130
     FM250400 VRB04KT P6SM SCT250=



000
FTUS45 KPUB 241120
TAFCOS
TAF
KCOS 241120Z 2412/2512 34009KT P6SM BKN110
     FM241700 35012KT P6SM VCSH SCT080 BKN110
     FM242000 31012KT P6SM VCSH SCT080 BKN110
     FM250300 34008KT P6SM BKN130=



000
FTUS45 KPUB 241120
TAFALS
TAF
KALS 241120Z 2412/2512 VRB05KT P6SM BKN110
     FM241700 29008KT P6SM VCSH SCT090 BKN130
     FM242100 29015G24KT P6SM VCSH SCT090 BKN130
     FM250200 28010KT P6SM SCT090 SCT130
     FM250400 VRB04KT P6SM SCT250=



000
FTUS45 KPUB 241120
TAFPUB
TAF
KPUB 241120Z 2412/2512 VRB06KT P6SM BKN120
     FM241700 33010KT P6SM SCT080 BKN120
     FM242100 33015KT P6SM VCSH SCT080 BKN120
     FM250200 30011KT P6SM BKN140
     FM250400 34005KT P6SM BKN120=



000
FTUS45 KPUB 241120
TAFCOS
TAF
KCOS 241120Z 2412/2512 34009KT P6SM BKN110
     FM241700 35012KT P6SM VCSH SCT080 BKN110
     FM242000 31012KT P6SM VCSH SCT080 BKN110
     FM250300 34008KT P6SM BKN130=



000
FTUS45 KPUB 241120
TAFPUB
TAF
KPUB 241120Z 2412/2512 VRB06KT P6SM BKN120
     FM241700 33010KT P6SM SCT080 BKN120
     FM242100 33015KT P6SM VCSH SCT080 BKN120
     FM250200 30011KT P6SM BKN140
     FM250400 34005KT P6SM BKN120=



000
FTUS45 KPUB 241120
TAFALS
TAF
KALS 241120Z 2412/2512 VRB05KT P6SM BKN110
     FM241700 29008KT P6SM VCSH SCT090 BKN130
     FM242100 29015G24KT P6SM VCSH SCT090 BKN130
     FM250200 28010KT P6SM SCT090 SCT130
     FM250400 VRB04KT P6SM SCT250=



000
FTUS45 KPUB 241120
TAFCOS
TAF
KCOS 241120Z 2412/2512 34009KT P6SM BKN110
     FM241700 35012KT P6SM VCSH SCT080 BKN110
     FM242000 31012KT P6SM VCSH SCT080 BKN110
     FM250300 34008KT P6SM BKN130=



000
FTUS45 KPUB 240530
TAFCOS
TAF
KCOS 240530Z 2406/2506 36006KT P6SM SCT140
     FM241200 34009KT P6SM BKN110
     FM241700 35012KT P6SM VCSH SCT080 BKN110
     FM242100 34012G22KT P6SM VCSH SCT060 BKN110
     FM250300 34008KT P6SM BKN130=



000
FTUS45 KPUB 240530
TAFALS
TAF
KALS 240530Z 2406/2506 VRB05KT P6SM BKN110
     FM241700 29008KT P6SM VCSH SCT090 BKN130
     FM242100 29015G24KT P6SM VCSH SCT090 BKN130
     FM250200 28010KT P6SM SCT090 SCT130=



000
FTUS45 KPUB 240530
TAFPUB
TAF
KPUB 240530Z 2406/2506 VRB05KT P6SM SCT150
     FM241300 VRB06KT P6SM BKN120
     FM241700 33010KT P6SM VCSH SCT080 BKN120
     FM242100 33015G25KT P6SM VCSH SCT080 BKN120
     FM250200 30011KT P6SM BKN140=



000
FTUS45 KPUB 240530
TAFALS
TAF
KALS 240530Z 2406/2506 VRB05KT P6SM BKN110
     FM241700 29008KT P6SM VCSH SCT090 BKN130
     FM242100 29015G24KT P6SM VCSH SCT090 BKN130
     FM250200 28010KT P6SM SCT090 SCT130=



000
FTUS45 KPUB 240530
TAFALS
TAF
KALS 240530Z 2406/2506 VRB05KT P6SM BKN110
     FM241700 29008KT P6SM VCSH SCT090 BKN130
     FM242100 29015G24KT P6SM VCSH SCT090 BKN130
     FM250200 28010KT P6SM SCT090 SCT130=



000
FTUS45 KPUB 240530
TAFCOS
TAF
KCOS 240530Z 2406/2506 36006KT P6SM SCT140
     FM241200 34009KT P6SM BKN110
     FM241700 35012KT P6SM VCSH SCT080 BKN110
     FM242100 34012G22KT P6SM VCSH SCT060 BKN110
     FM250300 34008KT P6SM BKN130=



000
FTUS45 KPUB 240530
TAFCOS
TAF
KCOS 240530Z 2406/2506 36006KT P6SM SCT140
     FM241200 34009KT P6SM BKN110
     FM241700 35012KT P6SM VCSH SCT080 BKN110
     FM242100 34012G22KT P6SM VCSH SCT060 BKN110
     FM250300 34008KT P6SM BKN130=



000
FTUS45 KPUB 240530
TAFPUB
TAF
KPUB 240530Z 2406/2506 VRB05KT P6SM SCT150
     FM241300 VRB06KT P6SM BKN120
     FM241700 33010KT P6SM VCSH SCT080 BKN120
     FM242100 33015G25KT P6SM VCSH SCT080 BKN120
     FM250200 30011KT P6SM BKN140=



000
FTUS45 KPUB 240530
TAFPUB
TAF
KPUB 240530Z 2406/2506 VRB05KT P6SM SCT150
     FM241300 VRB06KT P6SM BKN120
     FM241700 33010KT P6SM VCSH SCT080 BKN120
     FM242100 33015G25KT P6SM VCSH SCT080 BKN120
     FM250200 30011KT P6SM BKN140=



000
FTUS45 KPUB 240144 AAB
TAFPUB
TAF AMD
KPUB 240144Z 2402/2424 03009KT P6SM SCT090 BKN150
     FM240500 VRB06KT P6SM SCT090 BKN150
     FM241700 31012G22KT P6SM VCSH SCT050 BKN080=



000
FTUS45 KPUB 240144 AAB
TAFPUB
TAF AMD
KPUB 240144Z 2402/2424 03009KT P6SM SCT090 BKN150
     FM240500 VRB06KT P6SM SCT090 BKN150
     FM241700 31012G22KT P6SM VCSH SCT050 BKN080=



000
FTUS45 KPUB 240106 AAA
TAFPUB
TAF AMD
KPUB 240106Z 2401/2424 VRB06KT P6SM VCSH SCT070 BKN130
     FM240400 VRB06KT P6SM SCT090 BKN130
     FM241700 31012G22KT P6SM VCSH SCT050 BKN080=



000
FTUS45 KPUB 240106 AAA
TAFPUB
TAF AMD
KPUB 240106Z 2401/2424 VRB06KT P6SM VCSH SCT070 BKN130
     FM240400 VRB06KT P6SM SCT090 BKN130
     FM241700 31012G22KT P6SM VCSH SCT050 BKN080=



000
FTUS45 KPUB 232342
TAFALS
TAF
KALS 232342Z 2400/2424 22014G24KT P6SM SCT090 BKN140
     FM240200 22008KT P6SM SCT090 BKN140
     FM240700 VRB05KT P6SM SCT090 BKN140
     FM241700 22012KT P6SM VCSH SCT080 BKN120
     FM242100 26015G25KT P6SM VCSH SCT080 BKN120=



000
FTUS45 KPUB 232342
TAFPUB
TAF
KPUB 232342Z 2400/2424 10010KT P6SM VCTS SCT090CB BKN130
      TEMPO 2400/2401 VRB15G25KT -TSRA BKN080CB
     FM240200 VRB06KT P6SM SCT090 BKN130
     FM241700 31012G22KT P6SM VCSH SCT050 BKN080=



000
FTUS45 KPUB 232342
TAFALS
TAF
KALS 232342Z 2400/2424 22014G24KT P6SM SCT090 BKN140
     FM240200 22008KT P6SM SCT090 BKN140
     FM240700 VRB05KT P6SM SCT090 BKN140
     FM241700 22012KT P6SM VCSH SCT080 BKN120
     FM242100 26015G25KT P6SM VCSH SCT080 BKN120=



000
FTUS45 KPUB 232342
TAFPUB
TAF
KPUB 232342Z 2400/2424 10010KT P6SM VCTS SCT090CB BKN130
      TEMPO 2400/2401 VRB15G25KT -TSRA BKN080CB
     FM240200 VRB06KT P6SM SCT090 BKN130
     FM241700 31012G22KT P6SM VCSH SCT050 BKN080=



000
FTUS45 KPUB 232342
TAFPUB
TAF
KPUB 232342Z 2400/2424 10010KT P6SM VCTS SCT090CB BKN130
      TEMPO 2400/2401 VRB15G25KT -TSRA BKN080CB
     FM240200 VRB06KT P6SM SCT090 BKN130
     FM241700 31012G22KT P6SM VCSH SCT050 BKN080=



000
FTUS45 KPUB 232342
TAFALS
TAF
KALS 232342Z 2400/2424 22014G24KT P6SM SCT090 BKN140
     FM240200 22008KT P6SM SCT090 BKN140
     FM240700 VRB05KT P6SM SCT090 BKN140
     FM241700 22012KT P6SM VCSH SCT080 BKN120
     FM242100 26015G25KT P6SM VCSH SCT080 BKN120=



000
FTUS45 KPUB 232342
TAFCOS
TAF
KCOS 232342Z 2400/2424 07010KT P6SM VCTS SCT090CB BKN130
      TEMPO 2400/2402 VRB15G25KT -TSRA BKN090CB
     FM240200 VRB06KT P6SM SCT090 BKN130
     FM241700 35012KT P6SM VCSH SCT050 BKN080=



000
FTUS45 KPUB 232342
TAFCOS
TAF
KCOS 232342Z 2400/2424 07010KT P6SM VCTS SCT090CB BKN130
      TEMPO 2400/2402 VRB15G25KT -TSRA BKN090CB
     FM240200 VRB06KT P6SM SCT090 BKN130
     FM241700 35012KT P6SM VCSH SCT050 BKN080=



000
FTUS45 KPUB 232342
TAFCOS
TAF
KCOS 232342Z 2400/2424 07010KT P6SM VCTS SCT090CB BKN130
      TEMPO 2400/2402 VRB15G25KT -TSRA BKN090CB
     FM240200 VRB06KT P6SM SCT090 BKN130
     FM241700 35012KT P6SM VCSH SCT050 BKN080=



000
FTUS45 KPUB 232342
TAFALS
TAF
KALS 232342Z 2400/2424 22014G24KT P6SM SCT090 BKN140
     FM240200 22008KT P6SM SCT090 BKN140
     FM240700 VRB05KT P6SM SCT090 BKN140
     FM241700 22012KT P6SM VCSH SCT080 BKN120
     FM242100 26015G25KT P6SM VCSH SCT080 BKN120=



000
FTUS45 KPUB 232342
TAFPUB
TAF
KPUB 232342Z 2400/2424 10010KT P6SM VCTS SCT090CB BKN130
      TEMPO 2400/2401 VRB15G25KT -TSRA BKN080CB
     FM240200 VRB06KT P6SM SCT090 BKN130
     FM241700 31012G22KT P6SM VCSH SCT050 BKN080=



000
FTUS45 KPUB 232342
TAFCOS
TAF
KCOS 232342Z 2400/2424 07010KT P6SM VCTS SCT090CB BKN130
      TEMPO 2400/2402 VRB15G25KT -TSRA BKN090CB
     FM240200 VRB06KT P6SM SCT090 BKN130
     FM241700 35012KT P6SM VCSH SCT050 BKN080=



000
FTUS45 KPUB 232302 AAB
TAFCOS
TAF AMD
KCOS 232302Z 2323/2418 02010G20KT P6SM VCSH SCT100 BKN140
     FM240200 02006KT P6SM SCT080 BKN150=



000
FTUS45 KPUB 232302 AAB
TAFCOS
TAF AMD
KCOS 232302Z 2323/2418 02010G20KT P6SM VCSH SCT100 BKN140
     FM240200 02006KT P6SM SCT080 BKN150=



000
FTUS45 KPUB 232241 AAB
TAFPUB
TAF AMD
KPUB 232241Z 2323/2418 06011KT P6SM VCSH SCT050 BKN110
      TEMPO 2323/2401 VRB15G25KT -SHRA BKN080
     FM240200 10008KT P6SM BKN100
     FM240500 VRB06KT P6SM SCT100 BKN200=



000
FTUS45 KPUB 232241 AAB
TAFPUB
TAF AMD
KPUB 232241Z 2323/2418 06011KT P6SM VCSH SCT050 BKN110
      TEMPO 2323/2401 VRB15G25KT -SHRA BKN080
     FM240200 10008KT P6SM BKN100
     FM240500 VRB06KT P6SM SCT100 BKN200=



000
FTUS45 KPUB 232241 AAB
TAFPUB
TAF AMD
KPUB 232241Z 2323/2418 06011KT P6SM VCSH SCT050 BKN110
      TEMPO 2323/2401 VRB15G25KT -SHRA BKN080
     FM240200 10008KT P6SM BKN100
     FM240500 VRB06KT P6SM SCT100 BKN200=



000
FTUS45 KPUB 232241 AAB
TAFPUB
TAF AMD
KPUB 232241Z 2323/2418 06011KT P6SM VCSH SCT050 BKN110
      TEMPO 2323/2401 VRB15G25KT -SHRA BKN080
     FM240200 10008KT P6SM BKN100
     FM240500 VRB06KT P6SM SCT100 BKN200=



000
FTUS45 KPUB 232215 AAA
TAFCOS
TAF AMD
KCOS 232215Z 2322/2418 17012G22KT P6SM VCSH SCT100 BKN140
     FM240200 02006KT P6SM SCT080 BKN150=



000
FTUS45 KPUB 231928 AAA
TAFPUB
TAF AMD
KPUB 231928Z 2319/2418 VRB20G45KT 5SM -TSRA BLDU BKN050CB
     FM232100 13010KT P6SM VCTS SCT050CB BKN100
     FM240200 10008KT P6SM BKN100
     FM240500 VRB06KT P6SM SCT100 BKN200=



000
FTUS45 KPUB 231928 AAA
TAFPUB
TAF AMD
KPUB 231928Z 2319/2418 VRB20G45KT 5SM -TSRA BLDU BKN050CB
     FM232100 13010KT P6SM VCTS SCT050CB BKN100
     FM240200 10008KT P6SM BKN100
     FM240500 VRB06KT P6SM SCT100 BKN200=



000
FTUS45 KPUB 231928 AAA
TAFPUB
TAF AMD
KPUB 231928Z 2319/2418 VRB20G45KT 5SM -TSRA BLDU BKN050CB
     FM232100 13010KT P6SM VCTS SCT050CB BKN100
     FM240200 10008KT P6SM BKN100
     FM240500 VRB06KT P6SM SCT100 BKN200=



000
FTUS45 KPUB 231735
TAFALS
TAF
KALS 231735Z 2318/2418 VRB03KT P6SM SKC
     FM231900 20012KT P6SM SCT100 SCT150
     FM232100 23015G25KT P6SM VCTS SCT080CB BKN100
     FM240200 22008KT P6SM SCT100 BKN120=



000
FTUS45 KPUB 231735
TAFCOS
TAF
KCOS 231735Z 2318/2418 22006KT P6SM SCT120 SCT200
     FM231900 18012KT P6SM FEW080 SCT150
     FM232100 24012G22KT P6SM VCTS SCT080CB BKN120
     FM240200 02006KT P6SM SCT080 BKN150=



000
FTUS45 KPUB 231735
TAFPUB
TAF
KPUB 231735Z 2318/2418 VRB04KT P6SM SKC
     FM232200 13010KT P6SM VCTS SCT100CB BKN150
     FM240200 10008KT P6SM BKN100
     FM240500 VRB06KT P6SM SCT100 BKN200=



000
FTUS45 KPUB 231735
TAFPUB
TAF
KPUB 231735Z 2318/2418 VRB04KT P6SM SKC
     FM232200 13010KT P6SM VCTS SCT100CB BKN150
     FM240200 10008KT P6SM BKN100
     FM240500 VRB06KT P6SM SCT100 BKN200=



000
FTUS45 KPUB 231735
TAFCOS
TAF
KCOS 231735Z 2318/2418 22006KT P6SM SCT120 SCT200
     FM231900 18012KT P6SM FEW080 SCT150
     FM232100 24012G22KT P6SM VCTS SCT080CB BKN120
     FM240200 02006KT P6SM SCT080 BKN150=



000
FTUS45 KPUB 231735
TAFALS
TAF
KALS 231735Z 2318/2418 VRB03KT P6SM SKC
     FM231900 20012KT P6SM SCT100 SCT150
     FM232100 23015G25KT P6SM VCTS SCT080CB BKN100
     FM240200 22008KT P6SM SCT100 BKN120=



000
FTUS45 KPUB 231353 AAB
TAFPUB
TAF AMD
KPUB 231353Z 2314/2412 VRB06KT P6SM FEW200
     FM231600 15008KT P6SM FEW120 SCT200
     FM232200 13010KT P6SM VCTS SCT100CB BKN150
     FM240200 10008KT P6SM BKN100
     FM240500 VRB06KT P6SM SCT100 BKN200=



000
FTUS45 KPUB 231353 AAA
TAFCOS
TAF AMD
KCOS 231353Z 2314/2412 04007KT P6SM SCT120
     FM231600 16007KT P6SM SCT200
     FM231900 18012KT P6SM FEW080 SCT150
     FM232100 24012G22KT P6SM VCTS SCT080CB BKN120
     FM240200 02006KT P6SM SCT080 BKN150=



000
FTUS45 KPUB 231353 AAA
TAFCOS
TAF AMD
KCOS 231353Z 2314/2412 04007KT P6SM SCT120
     FM231600 16007KT P6SM SCT200
     FM231900 18012KT P6SM FEW080 SCT150
     FM232100 24012G22KT P6SM VCTS SCT080CB BKN120
     FM240200 02006KT P6SM SCT080 BKN150=



000
FTUS45 KPUB 231353 AAB
TAFPUB
TAF AMD
KPUB 231353Z 2314/2412 VRB06KT P6SM FEW200
     FM231600 15008KT P6SM FEW120 SCT200
     FM232200 13010KT P6SM VCTS SCT100CB BKN150
     FM240200 10008KT P6SM BKN100
     FM240500 VRB06KT P6SM SCT100 BKN200=



000
FTUS45 KPUB 231353 AAB
TAFPUB
TAF AMD
KPUB 231353Z 2314/2412 VRB06KT P6SM FEW200
     FM231600 15008KT P6SM FEW120 SCT200
     FM232200 13010KT P6SM VCTS SCT100CB BKN150
     FM240200 10008KT P6SM BKN100
     FM240500 VRB06KT P6SM SCT100 BKN200=



000
FTUS45 KPUB 231353 AAB
TAFPUB
TAF AMD
KPUB 231353Z 2314/2412 VRB06KT P6SM FEW200
     FM231600 15008KT P6SM FEW120 SCT200
     FM232200 13010KT P6SM VCTS SCT100CB BKN150
     FM240200 10008KT P6SM BKN100
     FM240500 VRB06KT P6SM SCT100 BKN200=



000
FTUS45 KPUB 231353 AAA
TAFCOS
TAF AMD
KCOS 231353Z 2314/2412 04007KT P6SM SCT120
     FM231600 16007KT P6SM SCT200
     FM231900 18012KT P6SM FEW080 SCT150
     FM232100 24012G22KT P6SM VCTS SCT080CB BKN120
     FM240200 02006KT P6SM SCT080 BKN150=



    US Dept of Commerce
    National Oceanic and Atmospheric Administration
    National Weather Service
    1325 East West Highway
    Silver Spring, MD 20910
    Page Author: NWS Internet Services Team
Disclaimer
Information Quality
Credits
Glossary
Privacy Policy
Freedom of Information Act (FOIA)
About Us
Career Opportunities